createdAt,value
2023-02-04T00:00:20.250Z,45.52
2023-02-04T00:02:50.400Z,45.83
2023-02-04T00:05:20.062Z,45.37
2023-02-04T00:07:48.689Z,45.62
2023-02-04T00:10:19.010Z,45.46
2023-02-04T00:12:47.380Z,45.70
2023-02-04T00:15:15.840Z,45.35
2023-02-04T00:17:44.284Z,45.30
2023-02-04T00:20:14.667Z,45.23
2023-02-04T00:22:43.208Z,45.20
2023-02-04T00:25:11.674Z,45.45
2023-02-04T00:27:40.383Z,45.12
2023-02-04T00:30:11.428Z,44.39
2023-02-04T00:32:39.833Z,44.15
2023-02-04T00:35:09.453Z,44.18
2023-02-04T00:37:39.377Z,43.76
2023-02-04T00:40:09.477Z,43.92
2023-02-04T00:42:37.854Z,43.37
2023-02-04T00:45:07.048Z,41.92
2023-02-04T00:47:35.857Z,42.48
2023-02-04T00:50:04.306Z,43.24
2023-02-04T00:52:33.177Z,42.92
2023-02-04T00:55:03.024Z,41.55
2023-02-04T00:57:31.445Z,42.29
2023-02-04T00:59:59.825Z,42.29
2023-02-04T01:02:28.326Z,41.27
2023-02-04T01:04:56.794Z,41.59
2023-02-04T01:07:25.287Z,41.46
2023-02-04T01:09:53.699Z,41.54
2023-02-04T01:12:26.076Z,41.12
2023-02-04T01:14:54.771Z,40.87
2023-02-04T01:17:23.293Z,41.10
2023-02-04T01:19:51.740Z,40.71
2023-02-04T01:22:20.165Z,41.16
2023-02-04T01:24:49.050Z,41.81
2023-02-04T01:27:17.417Z,42.36
2023-02-04T01:29:47.256Z,41.99
2023-02-04T01:32:15.669Z,42.71
2023-02-04T01:34:44.132Z,42.21
2023-02-04T01:37:12.528Z,42.18
2023-02-04T01:39:40.918Z,42.40
2023-02-04T01:42:09.559Z,42.90
2023-02-04T01:44:38.137Z,43.41
2023-02-04T01:47:08.363Z,43.18
2023-02-04T01:49:36.919Z,43.18
2023-02-04T01:52:05.999Z,43.26
2023-02-04T01:54:34.487Z,44.07
2023-02-04T01:57:03.224Z,44.57
2023-02-04T01:59:31.695Z,44.79
2023-02-04T02:02:00.168Z,44.70
2023-02-04T02:04:33.340Z,44.43
2023-02-04T02:07:06.442Z,44.07
2023-02-04T02:09:36.022Z,43.51
2023-02-04T02:12:05.272Z,42.94
2023-02-04T02:14:33.774Z,42.99
2023-02-04T02:17:02.306Z,42.11
2023-02-04T02:19:39.241Z,42.27
2023-02-04T02:22:17.416Z,42.21
2023-02-04T02:24:47.164Z,41.23
2023-02-04T02:27:15.593Z,41.45
2023-02-04T02:29:44.723Z,41.25
2023-02-04T02:32:15.897Z,41.23
2023-02-04T02:34:47.351Z,41.18
2023-02-04T02:37:15.842Z,41.42
2023-02-04T02:39:47.333Z,40.04
2023-02-04T02:42:18.798Z,39.90
2023-02-04T02:44:49.568Z,39.79
2023-02-04T02:47:21.748Z,40.29
2023-02-04T02:49:52.489Z,40.73
2023-02-04T02:52:23.011Z,40.57
2023-02-04T02:54:53.959Z,40.41
2023-02-04T02:57:24.747Z,40.62
2023-02-04T02:59:53.209Z,40.49
2023-02-04T03:02:24.805Z,39.90
2023-02-04T03:05:00.924Z,40.22
2023-02-04T03:07:29.405Z,40.61
2023-02-04T03:09:59.279Z,40.48
2023-02-04T03:12:27.868Z,39.54
2023-02-04T03:14:56.427Z,39.23
2023-02-04T03:17:24.877Z,39.98
2023-02-04T03:19:53.511Z,39.98
2023-02-04T03:22:22.104Z,41.44
2023-02-04T03:24:50.580Z,41.70
2023-02-04T03:27:20.889Z,42.12
2023-02-04T03:29:49.260Z,40.69
2023-02-04T03:32:17.922Z,41.13
2023-02-04T03:34:46.287Z,40.73
2023-02-04T03:37:14.719Z,40.74
2023-02-04T03:39:43.143Z,40.56
2023-02-04T03:42:11.546Z,40.53
2023-02-04T03:44:41.323Z,40.86
2023-02-04T03:47:09.675Z,40.56
2023-02-04T03:49:38.088Z,41.18
2023-02-04T03:52:07.345Z,40.39
2023-02-04T03:54:35.781Z,40.79
2023-02-04T03:57:04.262Z,41.31
2023-02-04T03:59:32.677Z,42.83
2023-02-04T04:02:02.549Z,44.63
2023-02-04T04:04:30.989Z,45.64
2023-02-04T04:06:59.806Z,46.55
2023-02-04T04:09:28.205Z,48.26
2023-02-04T04:11:56.594Z,48.77
2023-02-04T04:14:25.124Z,50.37
2023-02-04T04:16:53.507Z,50.66
2023-02-04T04:19:25.008Z,49.70
2023-02-04T04:21:53.310Z,51.37
2023-02-04T04:24:21.729Z,53.71
2023-02-04T04:26:50.101Z,55.36
2023-02-04T04:29:18.470Z,56.43
2023-02-04T04:31:46.927Z,57.52
2023-02-04T04:34:15.332Z,58.14
2023-02-04T04:36:45.120Z,58.89
2023-02-04T04:39:13.616Z,59.46
2023-02-04T04:41:42.003Z,58.90
2023-02-04T04:44:10.423Z,58.68
2023-02-04T04:46:40.686Z,58.70
2023-02-04T04:49:09.082Z,58.82
2023-02-04T04:51:37.510Z,59.07
2023-02-04T04:54:07.932Z,59.26
2023-02-04T04:56:36.432Z,59.26
2023-02-04T04:59:04.915Z,59.38
2023-02-04T05:01:33.985Z,59.48
2023-02-04T05:04:03.957Z,59.26
2023-02-04T05:06:32.367Z,58.72
2023-02-04T05:09:00.739Z,57.71
2023-02-04T05:11:31.046Z,57.42
2023-02-04T05:13:59.462Z,56.77
2023-02-04T05:16:27.935Z,56.61
2023-02-04T05:18:56.367Z,56.62
2023-02-04T05:21:24.952Z,56.48
2023-02-04T05:23:53.374Z,56.80
2023-02-04T05:26:29.886Z,56.35
2023-02-04T05:29:01.486Z,56.24
2023-02-04T05:31:29.923Z,56.18
2023-02-04T05:33:58.528Z,56.02
2023-02-04T05:36:27.077Z,56.01
2023-02-04T05:38:55.482Z,55.90
2023-02-04T05:41:23.912Z,54.97
2023-02-04T05:43:52.250Z,53.22
2023-02-04T05:46:22.071Z,52.13
2023-02-04T05:48:50.568Z,50.48
2023-02-04T05:51:19.009Z,49.67
2023-02-04T05:53:47.336Z,49.36
2023-02-04T05:56:15.934Z,48.22
2023-02-04T05:58:44.331Z,48.72
2023-02-04T06:01:12.734Z,47.67
2023-02-04T06:03:42.496Z,47.15
2023-02-04T06:06:10.938Z,45.98
2023-02-04T06:08:39.414Z,45.85
2023-02-04T06:11:08.126Z,45.59
2023-02-04T06:13:36.521Z,45.74
2023-02-04T06:16:06.504Z,44.99
2023-02-04T06:18:34.894Z,45.43
2023-02-04T06:21:04.827Z,44.98
2023-02-04T06:23:34.718Z,44.29
2023-02-04T06:26:03.424Z,44.33
2023-02-04T06:28:31.896Z,43.35
2023-02-04T06:31:00.432Z,43.28
2023-02-04T06:33:28.905Z,43.69
2023-02-04T06:35:57.371Z,43.47
2023-02-04T06:38:27.151Z,43.85
2023-02-04T06:40:55.505Z,43.01
2023-02-04T06:43:25.567Z,43.36
2023-02-04T06:45:53.963Z,43.79
2023-02-04T06:48:22.433Z,43.79
2023-02-04T06:50:50.835Z,43.50
2023-02-04T06:53:19.251Z,42.53
2023-02-04T06:55:49.012Z,42.46
2023-02-04T06:58:17.438Z,42.32
2023-02-04T07:00:45.876Z,42.30
2023-02-04T07:03:14.283Z,42.09
2023-02-04T07:05:42.700Z,41.93
2023-02-04T07:08:11.123Z,42.14
2023-02-04T07:10:39.496Z,41.77
2023-02-04T07:13:09.322Z,42.11
2023-02-04T07:15:37.822Z,42.96
2023-02-04T07:18:06.200Z,43.82
2023-02-04T07:20:34.980Z,43.39
2023-02-04T07:23:03.541Z,43.64
2023-02-04T07:25:31.902Z,43.92
2023-02-04T07:28:01.981Z,46.40
2023-02-04T07:30:32.294Z,46.28
2023-02-04T07:33:00.881Z,44.08
2023-02-04T07:35:29.247Z,42.62
2023-02-04T07:37:57.607Z,42.23
2023-02-04T07:40:26.005Z,42.75
2023-02-04T07:42:54.446Z,41.50
2023-02-04T07:45:22.926Z,40.04
2023-02-04T07:47:52.712Z,39.82
2023-02-04T07:50:21.266Z,40.88
2023-02-04T07:52:49.711Z,40.77
2023-02-04T07:55:18.369Z,41.08
2023-02-04T07:57:46.780Z,41.02
2023-02-04T08:00:16.564Z,42.30
2023-02-04T08:02:45.045Z,43.08
2023-02-04T08:05:14.960Z,44.07
2023-02-04T08:07:43.399Z,43.94
2023-02-04T08:10:13.547Z,44.67
2023-02-04T08:12:41.964Z,44.22
2023-02-04T08:15:11.224Z,43.53
2023-02-04T08:17:39.641Z,43.04
2023-02-04T08:20:09.714Z,42.73
2023-02-04T08:22:40.016Z,42.40
2023-02-04T08:25:10.206Z,42.25
2023-02-04T08:27:38.619Z,41.80
2023-02-04T08:30:08.876Z,41.91
2023-02-04T08:32:37.677Z,41.76
2023-02-04T08:35:06.789Z,41.14
2023-02-04T08:37:35.511Z,39.70
2023-02-04T08:40:06.635Z,39.74
2023-02-04T08:42:35.721Z,40.27
2023-02-04T08:45:04.889Z,38.42
2023-02-04T08:47:33.349Z,38.08
2023-02-04T08:50:01.797Z,38.26
2023-02-04T08:52:30.246Z,37.64
2023-02-04T08:54:58.669Z,38.08
2023-02-04T08:57:28.463Z,37.99
2023-02-04T08:59:56.829Z,38.09
2023-02-04T09:02:25.328Z,38.19
2023-02-04T09:04:53.819Z,38.56
2023-02-04T09:07:22.541Z,38.16
2023-02-04T09:09:50.922Z,38.15
2023-02-04T09:12:19.334Z,38.37
2023-02-04T09:14:49.288Z,38.32
2023-02-04T09:17:17.897Z,38.06
2023-02-04T09:19:46.300Z,38.56
2023-02-04T09:22:15.355Z,39.09
2023-02-04T09:24:43.749Z,39.07
2023-02-04T09:27:12.138Z,39.18
2023-02-04T09:29:40.564Z,38.50
2023-02-04T09:32:10.420Z,37.87
2023-02-04T09:34:38.867Z,37.89
2023-02-04T09:37:07.327Z,37.89
2023-02-04T09:39:35.753Z,38.04
2023-02-04T09:42:04.300Z,37.86
2023-02-04T09:44:32.768Z,36.98
2023-02-04T09:47:02.437Z,36.70
2023-02-04T09:49:33.288Z,37.33
2023-02-04T09:52:01.849Z,36.97
2023-02-04T09:54:30.326Z,37.08
2023-02-04T09:56:59.484Z,36.46
2023-02-04T09:59:29.804Z,36.52
2023-02-04T10:02:03.222Z,35.98
2023-02-04T10:04:33.020Z,36.25
2023-02-04T10:07:01.520Z,36.28
2023-02-04T10:09:29.919Z,35.71
2023-02-04T10:11:58.414Z,36.10
2023-02-04T10:14:26.852Z,35.95
2023-02-04T10:16:59.522Z,35.34
2023-02-04T10:19:30.239Z,35.38
2023-02-04T10:22:00.618Z,34.93
2023-02-04T10:24:30.730Z,34.26
2023-02-04T10:27:09.708Z,34.77
2023-02-04T10:29:38.559Z,35.13
2023-02-04T10:32:07.667Z,33.94
2023-02-04T10:34:39.957Z,34.14
2023-02-04T10:37:22.647Z,34.07
2023-02-04T10:39:51.521Z,33.22
2023-02-04T10:42:25.283Z,33.50
2023-02-04T10:44:54.726Z,32.72
2023-02-04T10:47:25.728Z,32.24
2023-02-04T10:49:56.505Z,32.43
2023-02-04T10:52:37.357Z,32.91
2023-02-04T10:55:07.609Z,32.91
2023-02-04T10:57:40.400Z,32.98
2023-02-04T11:00:19.154Z,33.27
2023-02-04T11:02:56.080Z,32.68
2023-02-04T11:05:30.313Z,32.26
2023-02-04T11:08:00.728Z,33.17
2023-02-04T11:10:33.217Z,34.51
2023-02-04T11:13:05.295Z,34.27
2023-02-04T11:15:48.511Z,34.40
2023-02-04T11:18:31.200Z,37.08
2023-02-04T11:21:01.286Z,37.56
2023-02-04T11:23:38.308Z,37.85
2023-02-04T11:26:17.311Z,37.31
2023-02-04T11:28:56.162Z,36.79
2023-02-04T11:31:47.100Z,35.47
2023-02-04T11:34:46.797Z,34.89
2023-02-04T11:37:36.098Z,33.89
2023-02-04T11:40:22.138Z,33.92
2023-02-04T11:42:51.007Z,33.14
2023-02-04T11:45:26.538Z,32.32
2023-02-04T11:47:57.785Z,32.09
2023-02-04T11:50:30.609Z,32.41
2023-02-04T11:53:01.947Z,32.46
2023-02-04T11:55:33.673Z,32.05
2023-02-04T11:58:02.523Z,32.04
2023-02-04T12:00:33.636Z,31.71
2023-02-04T12:03:06.340Z,32.32
2023-02-04T12:05:42.620Z,33.35
2023-02-04T12:08:13.591Z,32.60
2023-02-04T12:10:51.140Z,33.06
2023-02-04T12:13:24.222Z,33.19
2023-02-04T12:16:02.482Z,32.60
2023-02-04T12:18:31.668Z,32.40
2023-02-04T12:21:01.556Z,32.69
2023-02-04T12:23:31.527Z,33.10
2023-02-04T12:26:01.420Z,33.44
2023-02-04T12:28:30.248Z,33.67
2023-02-04T12:30:58.789Z,33.81
2023-02-04T12:33:27.317Z,33.38
2023-02-04T12:35:55.725Z,33.32
2023-02-04T12:38:24.166Z,32.27
2023-02-04T12:40:52.600Z,31.72
2023-02-04T12:43:22.354Z,31.61
2023-02-04T12:45:50.761Z,31.38
2023-02-04T12:48:19.238Z,30.67
2023-02-04T12:50:47.837Z,30.58
2023-02-04T12:53:16.506Z,29.74
2023-02-04T12:55:45.032Z,28.80
2023-02-04T12:58:13.446Z,29.21
2023-02-04T13:00:43.463Z,28.37
2023-02-04T13:03:11.866Z,28.06
2023-02-04T13:05:40.358Z,27.42
2023-02-04T13:08:08.948Z,27.51
2023-02-04T13:10:37.382Z,27.09
2023-02-04T13:13:05.765Z,27.50
2023-02-04T13:15:34.351Z,27.47
2023-02-04T13:18:04.495Z,28.51
2023-02-04T13:20:32.895Z,28.84
2023-02-04T13:23:01.343Z,28.89
2023-02-04T13:25:30.069Z,28.89
2023-02-04T13:27:58.567Z,29.27
2023-02-04T13:30:27.056Z,28.83
2023-02-04T13:32:55.553Z,29.19
2023-02-04T13:35:25.558Z,29.61
2023-02-04T13:37:56.253Z,30.15
2023-02-04T13:40:24.854Z,30.61
2023-02-04T13:42:53.273Z,30.51
2023-02-04T13:45:21.911Z,30.84
2023-02-04T13:47:50.377Z,30.68
2023-02-04T13:50:19.111Z,30.61
2023-02-04T13:52:49.058Z,30.62
2023-02-04T13:55:17.756Z,30.80
2023-02-04T13:57:46.195Z,30.64
2023-02-04T14:00:16.203Z,30.77
2023-02-04T14:02:44.635Z,30.97
2023-02-04T14:05:13.296Z,30.55
2023-02-04T14:07:41.756Z,30.50
2023-02-04T14:10:12.205Z,30.70
2023-02-04T14:12:41.960Z,31.13
2023-02-04T14:15:12.089Z,31.44
2023-02-04T14:17:40.753Z,31.01
2023-02-04T14:20:10.864Z,31.00
2023-02-04T14:22:39.262Z,30.97
2023-02-04T14:25:10.458Z,31.43
2023-02-04T14:27:42.194Z,31.45
2023-02-04T14:30:18.907Z,31.59
2023-02-04T14:32:47.560Z,31.57
2023-02-04T14:35:17.273Z,31.82
2023-02-04T14:37:46.005Z,31.88
2023-02-04T14:40:18.179Z,31.99
2023-02-04T14:42:46.936Z,31.91
2023-02-04T14:45:17.016Z,32.23
2023-02-04T14:47:45.680Z,32.08
2023-02-04T14:50:18.334Z,32.23
2023-02-04T14:52:46.902Z,32.33
2023-02-04T14:55:17.050Z,32.35
2023-02-04T14:57:45.826Z,32.02
2023-02-04T15:00:16.405Z,32.43
2023-02-04T15:02:45.774Z,32.40
2023-02-04T15:05:15.296Z,32.27
2023-02-04T15:07:43.818Z,32.42
2023-02-04T15:10:15.350Z,32.41
2023-02-04T15:12:45.253Z,32.57
2023-02-04T15:15:13.882Z,32.69
2023-02-04T15:17:42.754Z,32.65
2023-02-04T15:20:12.595Z,32.66
2023-02-04T15:22:41.061Z,32.88
2023-02-04T15:25:11.435Z,32.95
2023-02-04T15:27:40.247Z,33.05
2023-02-04T15:30:12.077Z,33.08
2023-02-04T15:32:42.968Z,33.67
2023-02-04T15:35:11.829Z,33.51
2023-02-04T15:37:40.580Z,33.71
2023-02-04T15:40:10.987Z,33.94
2023-02-04T15:42:39.511Z,33.63
2023-02-04T15:45:10.470Z,33.55
2023-02-04T15:47:39.277Z,33.74
2023-02-04T15:50:10.997Z,34.14
2023-02-04T15:52:39.604Z,33.88
2023-02-04T15:55:09.338Z,34.23
2023-02-04T15:57:39.759Z,34.23
2023-02-04T16:00:11.988Z,33.93
2023-02-04T16:02:40.760Z,34.17
2023-02-04T16:05:10.091Z,34.41
2023-02-04T16:07:38.985Z,34.02
2023-02-04T16:10:08.229Z,34.49
2023-02-04T16:12:37.276Z,33.98
2023-02-04T16:15:06.830Z,34.08
2023-02-04T16:17:36.931Z,34.10
2023-02-04T16:20:05.804Z,33.59
2023-02-04T16:22:34.686Z,34.43
2023-02-04T16:25:03.806Z,33.83
2023-02-04T16:27:33.781Z,34.77
2023-02-04T16:30:03.812Z,34.58
2023-02-04T16:32:33.962Z,34.27
2023-02-04T16:35:05.623Z,34.54
2023-02-04T16:37:34.259Z,34.58
2023-02-04T16:40:03.028Z,34.74
2023-02-04T16:42:32.541Z,34.59
2023-02-04T16:45:01.354Z,34.33
2023-02-04T16:47:30.152Z,33.85
2023-02-04T16:50:01.061Z,33.65
2023-02-04T16:52:32.834Z,34.14
2023-02-04T16:55:01.887Z,34.13
2023-02-04T16:57:30.617Z,34.00
2023-02-04T16:59:59.258Z,34.12
2023-02-04T17:02:27.986Z,34.34
2023-02-04T17:04:56.438Z,33.43
2023-02-04T17:07:25.521Z,33.88
2023-02-04T17:09:55.802Z,33.38
2023-02-04T17:12:25.126Z,33.92
2023-02-04T17:14:54.483Z,33.69
2023-02-04T17:17:23.318Z,33.11
2023-02-04T17:19:51.790Z,33.40
2023-02-04T17:22:20.595Z,33.18
2023-02-04T17:24:49.038Z,33.22
2023-02-04T17:27:19.568Z,33.05
2023-02-04T17:29:48.134Z,33.44
2023-02-04T17:32:16.888Z,33.43
2023-02-04T17:34:45.744Z,33.09
2023-02-04T17:37:14.502Z,32.90
2023-02-04T17:39:44.141Z,32.57
2023-02-04T17:42:13.621Z,33.27
2023-02-04T17:44:44.829Z,33.43
2023-02-04T17:47:14.380Z,33.23
2023-02-04T17:49:43.735Z,33.37
2023-02-04T17:52:12.897Z,33.17
2023-02-04T17:54:42.537Z,33.14
2023-02-04T17:57:20.424Z,34.08
2023-02-04T17:59:52.981Z,33.33
2023-02-04T18:02:28.225Z,33.71
2023-02-04T18:05:02.067Z,33.96
2023-02-04T18:07:30.582Z,34.10
2023-02-04T18:10:19.601Z,34.13
2023-02-04T18:12:49.022Z,33.81
2023-02-04T18:15:34.650Z,34.18
2023-02-04T18:18:19.902Z,33.76
2023-02-04T18:20:52.462Z,34.02
2023-02-04T18:23:21.484Z,33.88
2023-02-04T18:25:51.427Z,34.00
2023-02-04T18:28:23.320Z,33.75
2023-02-04T18:31:00.473Z,34.31
2023-02-04T18:33:31.905Z,34.18
2023-02-04T18:36:02.875Z,34.27
2023-02-04T18:38:39.262Z,33.97
2023-02-04T18:41:31.499Z,34.19
2023-02-04T18:44:17.704Z,34.74
2023-02-04T18:46:48.949Z,34.89
2023-02-04T18:49:28.865Z,34.87
2023-02-04T18:52:00.592Z,34.46
2023-02-04T18:54:36.724Z,35.00
2023-02-04T18:57:29.285Z,34.85
2023-02-04T19:00:26.332Z,34.85
2023-02-04T19:03:00.125Z,34.76
2023-02-04T19:05:35.429Z,34.65
2023-02-04T19:08:28.969Z,34.46
2023-02-04T19:11:01.774Z,35.12
2023-02-04T19:13:41.608Z,35.08
2023-02-04T19:16:28.496Z,34.95
2023-02-04T19:19:03.105Z,34.55
2023-02-04T19:21:35.377Z,34.91
2023-02-04T19:24:27.938Z,34.79
2023-02-04T19:27:00.340Z,35.27
2023-02-04T19:29:43.839Z,35.12
2023-02-04T19:32:29.474Z,35.28
2023-02-04T19:35:18.013Z,35.42
2023-02-04T19:37:54.008Z,35.75
2023-02-04T19:40:35.057Z,35.54
2023-02-04T19:43:20.523Z,35.78
2023-02-04T19:45:51.363Z,35.20
2023-02-04T19:48:28.525Z,35.34
2023-02-04T19:50:59.048Z,35.61
2023-02-04T19:53:31.164Z,35.40
2023-02-04T19:56:00.535Z,35.77
2023-02-04T19:58:38.277Z,35.22
2023-02-04T20:01:12.528Z,35.38
2023-02-04T20:03:47.525Z,35.03
2023-02-04T20:06:31.870Z,35.51
2023-02-04T20:09:08.234Z,34.98
2023-02-04T20:11:54.369Z,35.07
2023-02-04T20:14:49.414Z,35.35
2023-02-04T20:17:46.030Z,35.29
2023-02-04T20:20:23.218Z,35.46
2023-02-04T20:22:57.222Z,35.52
2023-02-04T20:25:42.624Z,35.54
2023-02-04T20:28:42.893Z,35.79
2023-02-04T20:31:29.458Z,35.40
2023-02-04T20:34:01.498Z,35.66
2023-02-04T20:36:39.044Z,35.87
2023-02-04T20:39:42.045Z,35.56
2023-02-04T20:42:36.505Z,35.34
2023-02-04T20:45:25.893Z,35.76
2023-02-04T20:48:00.845Z,35.97
2023-02-04T20:50:41.276Z,36.68
2023-02-04T20:53:26.498Z,37.67
2023-02-04T20:56:03.932Z,38.82
2023-02-04T20:58:38.963Z,39.03
2023-02-04T21:01:24.282Z,40.10
2023-02-04T21:03:52.982Z,40.58
2023-02-04T21:06:28.577Z,41.01
2023-02-04T21:08:59.295Z,41.05
2023-02-04T21:11:30.831Z,41.64
2023-02-04T21:13:59.786Z,41.69
2023-02-04T21:16:29.315Z,42.66
2023-02-04T21:18:58.611Z,42.14
2023-02-04T21:21:29.025Z,43.03
2023-02-04T21:23:58.447Z,43.14
2023-02-04T21:26:29.104Z,44.11
2023-02-04T21:28:58.315Z,43.99
2023-02-04T21:31:27.921Z,45.07
2023-02-04T21:33:57.549Z,44.64
2023-02-04T21:36:27.894Z,45.13
2023-02-04T21:38:56.730Z,45.69
2023-02-04T21:41:25.858Z,44.91
2023-02-04T21:43:56.312Z,45.70
2023-02-04T21:46:25.210Z,45.49
2023-02-04T21:48:54.075Z,45.27
2023-02-04T21:51:22.798Z,44.81
2023-02-04T21:53:51.845Z,44.76
2023-02-04T21:56:20.370Z,44.98
2023-02-04T21:58:49.043Z,44.78
2023-02-04T22:01:19.182Z,45.11
2023-02-04T22:03:47.732Z,43.99
2023-02-04T22:06:16.194Z,44.78
2023-02-04T22:08:44.650Z,43.74
2023-02-04T22:11:13.087Z,44.48
2023-02-04T22:14:00.206Z,44.53
2023-02-04T22:16:30.162Z,44.77
2023-02-04T22:18:58.591Z,45.17
2023-02-04T22:21:27.045Z,44.62
2023-02-04T22:23:55.470Z,44.44
2023-02-04T22:26:23.931Z,44.29
2023-02-04T22:28:52.350Z,43.73
2023-02-04T22:31:20.830Z,43.80
2023-02-04T22:33:50.676Z,43.42
2023-02-04T22:36:19.138Z,43.72
2023-02-04T22:38:47.604Z,43.01
2023-02-04T22:41:16.048Z,43.27
2023-02-04T22:43:44.496Z,43.06
2023-02-04T22:46:13.088Z,43.07
2023-02-04T22:48:41.699Z,43.49
2023-02-04T22:51:11.673Z,43.40
2023-02-04T22:53:40.201Z,43.11
2023-02-04T22:56:08.961Z,42.86
2023-02-04T22:58:37.393Z,43.25
2023-02-04T23:01:06.252Z,43.01
2023-02-04T23:03:35.116Z,42.50
2023-02-04T23:06:03.632Z,42.22
2023-02-04T23:08:33.551Z,42.23
2023-02-04T23:11:02.134Z,41.76
2023-02-04T23:13:30.648Z,41.74
2023-02-04T23:15:59.247Z,41.55
2023-02-04T23:18:27.753Z,41.70
2023-02-04T23:20:56.206Z,41.78
2023-02-04T23:23:25.001Z,41.82
2023-02-04T23:25:54.894Z,41.47
2023-02-04T23:28:23.372Z,41.85
2023-02-04T23:30:51.842Z,41.88
2023-02-04T23:33:20.337Z,41.85
2023-02-04T23:35:48.923Z,41.43
2023-02-04T23:38:17.679Z,41.96
2023-02-04T23:40:46.156Z,41.08
2023-02-04T23:43:16.311Z,41.15
2023-02-04T23:45:45.771Z,41.16
2023-02-04T23:48:14.266Z,41.11
2023-02-04T23:50:42.719Z,40.98
2023-02-04T23:53:11.181Z,41.01
2023-02-04T23:55:39.849Z,40.92
2023-02-04T23:58:08.349Z,41.31
